sensor_id;sensor_type;location;lat;lon;timestamp;temperature;humidity
52203;DHT22;38173;52.850;6.970;2023-04-01T00:01:18;9.50;99.90
52203;DHT22;38173;52.850;6.970;2023-04-01T00:03:44;9.40;99.90
52203;DHT22;38173;52.850;6.970;2023-04-01T00:06:14;9.50;99.90
52203;DHT22;38173;52.850;6.970;2023-04-01T00:08:40;9.40;99.90
52203;DHT22;38173;52.850;6.970;2023-04-01T00:11:06;9.40;99.90
52203;DHT22;38173;52.850;6.970;2023-04-01T00:13:31;9.50;99.90
52203;DHT22;38173;52.850;6.970;2023-04-01T00:15:57;9.50;99.90
52203;DHT22;38173;52.850;6.970;2023-04-01T00:18:24;9.40;99.90
52203;DHT22;38173;52.850;6.970;2023-04-01T00:20:50;9.40;99.90
52203;DHT22;38173;52.850;6.970;2023-04-01T00:23:16;9.50;99.90
52203;DHT22;38173;52.850;6.970;2023-04-01T00:25:41;9.40;99.90
52203;DHT22;38173;52.850;6.970;2023-04-01T00:28:07;9.40;99.90
52203;DHT22;38173;52.850;6.970;2023-04-01T00:30:33;9.40;99.90
52203;DHT22;38173;52.850;6.970;2023-04-01T00:32:59;9.40;99.90
52203;DHT22;38173;52.850;6.970;2023-04-01T00:35:25;9.40;99.90
52203;DHT22;38173;52.850;6.970;2023-04-01T00:37:50;9.40;99.90
52203;DHT22;38173;52.850;6.970;2023-04-01T00:40:25;9.40;99.90
52203;DHT22;38173;52.850;6.970;2023-04-01T00:42:51;9.40;99.90
52203;DHT22;38173;52.850;6.970;2023-04-01T00:47:48;9.40;99.90
52203;DHT22;38173;52.850;6.970;2023-04-01T00:50:14;9.30;99.90
52203;DHT22;38173;52.850;6.970;2023-04-01T00:52:40;9.40;99.90
52203;DHT22;38173;52.850;6.970;2023-04-01T00:55:06;9.40;99.90
52203;DHT22;38173;52.850;6.970;2023-04-01T00:57:34;9.40;99.90
52203;DHT22;38173;52.850;6.970;2023-04-01T01:00:02;9.40;99.90
52203;DHT22;38173;52.850;6.970;2023-04-01T01:02:28;9.30;99.90
52203;DHT22;38173;52.850;6.970;2023-04-01T01:04:53;9.40;99.90
52203;DHT22;38173;52.850;6.970;2023-04-01T01:07:32;9.40;99.90
52203;DHT22;38173;52.850;6.970;2023-04-01T01:10:10;9.40;99.90
52203;DHT22;38173;52.850;6.970;2023-04-01T01:20:58;9.40;99.90
52203;DHT22;38173;52.850;6.970;2023-04-01T01:23:42;9.40;99.90
52203;DHT22;38173;52.850;6.970;2023-04-01T01:26:22;9.40;99.90
52203;DHT22;38173;52.850;6.970;2023-04-01T01:28:57;9.40;99.90
52203;DHT22;38173;52.850;6.970;2023-04-01T01:34:01;9.30;99.90
52203;DHT22;38173;52.850;6.970;2023-04-01T01:36:31;9.30;99.90
52203;DHT22;38173;52.850;6.970;2023-04-01T01:39:00;9.30;99.90
52203;DHT22;38173;52.850;6.970;2023-04-01T01:41:26;9.30;99.90
52203;DHT22;38173;52.850;6.970;2023-04-01T01:43:52;9.30;99.90
52203;DHT22;38173;52.850;6.970;2023-04-01T01:46:19;9.30;99.90
52203;DHT22;38173;52.850;6.970;2023-04-01T01:48:46;9.20;99.90
52203;DHT22;38173;52.850;6.970;2023-04-01T01:51:12;9.30;99.90
52203;DHT22;38173;52.850;6.970;2023-04-01T01:53:38;9.30;99.90
52203;DHT22;38173;52.850;6.970;2023-04-01T01:56:04;9.30;99.90
52203;DHT22;38173;52.850;6.970;2023-04-01T01:58:32;9.30;99.90
52203;DHT22;38173;52.850;6.970;2023-04-01T02:01:01;9.30;99.90
52203;DHT22;38173;52.850;6.970;2023-04-01T02:03:28;9.30;99.90
52203;DHT22;38173;52.850;6.970;2023-04-01T02:05:55;9.30;99.90
52203;DHT22;38173;52.850;6.970;2023-04-01T02:08:43;9.30;99.90
52203;DHT22;38173;52.850;6.970;2023-04-01T02:11:11;9.30;99.90
52203;DHT22;38173;52.850;6.970;2023-04-01T02:13:46;9.30;99.90
52203;DHT22;38173;52.850;6.970;2023-04-01T02:16:16;9.30;99.90
52203;DHT22;38173;52.850;6.970;2023-04-01T02:18:44;9.30;99.90
52203;DHT22;38173;52.850;6.970;2023-04-01T02:21:10;9.30;99.90
52203;DHT22;38173;52.850;6.970;2023-04-01T02:23:37;9.30;99.90
52203;DHT22;38173;52.850;6.970;2023-04-01T02:26:04;9.30;99.90
52203;DHT22;38173;52.850;6.970;2023-04-01T02:28:31;9.30;99.90
52203;DHT22;38173;52.850;6.970;2023-04-01T02:30:57;9.30;99.90
52203;DHT22;38173;52.850;6.970;2023-04-01T02:33:25;9.30;99.90
52203;DHT22;38173;52.850;6.970;2023-04-01T02:35:53;9.30;99.90
52203;DHT22;38173;52.850;6.970;2023-04-01T02:38:19;9.30;99.90
52203;DHT22;38173;52.850;6.970;2023-04-01T02:40:49;9.30;99.90
52203;DHT22;38173;52.850;6.970;2023-04-01T02:43:15;9.30;99.90
52203;DHT22;38173;52.850;6.970;2023-04-01T02:45:42;9.30;99.90
52203;DHT22;38173;52.850;6.970;2023-04-01T02:48:07;9.30;99.90
52203;DHT22;38173;52.850;6.970;2023-04-01T02:50:33;9.30;99.90
52203;DHT22;38173;52.850;6.970;2023-04-01T02:53:00;9.30;99.90
52203;DHT22;38173;52.850;6.970;2023-04-01T02:55:25;9.30;99.90
52203;DHT22;38173;52.850;6.970;2023-04-01T02:57:51;9.30;99.90
52203;DHT22;38173;52.850;6.970;2023-04-01T03:00:17;9.20;99.90
52203;DHT22;38173;52.850;6.970;2023-04-01T03:02:42;9.20;99.90
52203;DHT22;38173;52.850;6.970;2023-04-01T03:05:09;9.30;99.90
52203;DHT22;38173;52.850;6.970;2023-04-01T03:07:35;9.20;99.90
52203;DHT22;38173;52.850;6.970;2023-04-01T03:10:01;9.30;99.90
52203;DHT22;38173;52.850;6.970;2023-04-01T03:12:27;9.20;99.90
52203;DHT22;38173;52.850;6.970;2023-04-01T03:14:52;9.30;99.90
52203;DHT22;38173;52.850;6.970;2023-04-01T03:17:18;9.30;99.90
52203;DHT22;38173;52.850;6.970;2023-04-01T03:19:44;9.30;99.90
52203;DHT22;38173;52.850;6.970;2023-04-01T03:22:10;9.20;99.90
52203;DHT22;38173;52.850;6.970;2023-04-01T03:24:36;9.30;99.90
52203;DHT22;38173;52.850;6.970;2023-04-01T03:27:02;9.20;99.90
52203;DHT22;38173;52.850;6.970;2023-04-01T03:29:27;9.20;99.90
52203;DHT22;38173;52.850;6.970;2023-04-01T03:31:53;9.30;99.90
52203;DHT22;38173;52.850;6.970;2023-04-01T03:34:19;9.20;99.90
52203;DHT22;38173;52.850;6.970;2023-04-01T03:36:44;9.30;99.90
52203;DHT22;38173;52.850;6.970;2023-04-01T03:39:10;9.20;99.90
52203;DHT22;38173;52.850;6.970;2023-04-01T03:41:36;9.30;99.90
52203;DHT22;38173;52.850;6.970;2023-04-01T03:44:02;9.20;99.90
52203;DHT22;38173;52.850;6.970;2023-04-01T03:46:28;9.30;99.90
52203;DHT22;38173;52.850;6.970;2023-04-01T03:48:53;9.20;99.90
52203;DHT22;38173;52.850;6.970;2023-04-01T03:51:19;9.30;99.90
52203;DHT22;38173;52.850;6.970;2023-04-01T03:53:45;9.20;99.90
52203;DHT22;38173;52.850;6.970;2023-04-01T03:56:11;9.20;99.90
52203;DHT22;38173;52.850;6.970;2023-04-01T03:58:37;9.20;99.90
52203;DHT22;38173;52.850;6.970;2023-04-01T04:01:12;9.20;99.90
52203;DHT22;38173;52.850;6.970;2023-04-01T04:03:38;9.30;99.90
52203;DHT22;38173;52.850;6.970;2023-04-01T04:06:07;9.30;99.90
52203;DHT22;38173;52.850;6.970;2023-04-01T04:08:35;9.30;99.90
52203;DHT22;38173;52.850;6.970;2023-04-01T04:11:01;9.20;99.90
52203;DHT22;38173;52.850;6.970;2023-04-01T04:13:26;9.20;99.90
52203;DHT22;38173;52.850;6.970;2023-04-01T04:15:52;9.20;99.90
52203;DHT22;38173;52.850;6.970;2023-04-01T04:18:17;9.30;99.90
52203;DHT22;38173;52.850;6.970;2023-04-01T04:20:46;9.30;99.90
52203;DHT22;38173;52.850;6.970;2023-04-01T04:23:15;9.30;99.90
52203;DHT22;38173;52.850;6.970;2023-04-01T04:25:41;9.20;99.90
52203;DHT22;38173;52.850;6.970;2023-04-01T04:28:06;9.30;99.90
52203;DHT22;38173;52.850;6.970;2023-04-01T04:30:32;9.20;99.90
52203;DHT22;38173;52.850;6.970;2023-04-01T04:32:58;9.30;99.90
52203;DHT22;38173;52.850;6.970;2023-04-01T04:35:23;9.20;99.90
52203;DHT22;38173;52.850;6.970;2023-04-01T04:37:49;9.20;99.90
52203;DHT22;38173;52.850;6.970;2023-04-01T04:40:14;9.20;99.90
52203;DHT22;38173;52.850;6.970;2023-04-01T04:42:40;9.20;99.90
52203;DHT22;38173;52.850;6.970;2023-04-01T04:45:06;9.20;99.90
52203;DHT22;38173;52.850;6.970;2023-04-01T04:47:31;9.30;99.90
52203;DHT22;38173;52.850;6.970;2023-04-01T04:49:58;9.20;99.90
52203;DHT22;38173;52.850;6.970;2023-04-01T04:52:23;9.30;99.90
52203;DHT22;38173;52.850;6.970;2023-04-01T04:54:49;9.20;99.90
52203;DHT22;38173;52.850;6.970;2023-04-01T04:57:15;9.20;99.90
52203;DHT22;38173;52.850;6.970;2023-04-01T04:59:40;9.30;99.90
52203;DHT22;38173;52.850;6.970;2023-04-01T05:02:06;9.20;99.90
52203;DHT22;38173;52.850;6.970;2023-04-01T05:04:35;9.30;99.90
52203;DHT22;38173;52.850;6.970;2023-04-01T05:07:01;9.30;99.90
52203;DHT22;38173;52.850;6.970;2023-04-01T05:09:27;9.20;99.90
52203;DHT22;38173;52.850;6.970;2023-04-01T05:11:52;9.20;99.90
52203;DHT22;38173;52.850;6.970;2023-04-01T05:14:18;9.20;99.90
52203;DHT22;38173;52.850;6.970;2023-04-01T05:16:44;9.20;99.90
52203;DHT22;38173;52.850;6.970;2023-04-01T05:19:09;9.20;99.90
52203;DHT22;38173;52.850;6.970;2023-04-01T05:21:35;9.20;99.90
52203;DHT22;38173;52.850;6.970;2023-04-01T05:24:00;9.20;99.90
52203;DHT22;38173;52.850;6.970;2023-04-01T05:26:26;9.30;99.90
52203;DHT22;38173;52.850;6.970;2023-04-01T05:28:52;9.30;99.90
52203;DHT22;38173;52.850;6.970;2023-04-01T05:31:17;9.30;99.90
52203;DHT22;38173;52.850;6.970;2023-04-01T05:33:43;9.30;99.90
52203;DHT22;38173;52.850;6.970;2023-04-01T05:36:10;9.30;99.90
52203;DHT22;38173;52.850;6.970;2023-04-01T05:38:36;9.30;99.90
52203;DHT22;38173;52.850;6.970;2023-04-01T05:41:02;9.30;99.90
52203;DHT22;38173;52.850;6.970;2023-04-01T05:43:29;9.30;99.90
52203;DHT22;38173;52.850;6.970;2023-04-01T05:45:55;9.30;99.90
52203;DHT22;38173;52.850;6.970;2023-04-01T05:48:21;9.40;99.90
52203;DHT22;38173;52.850;6.970;2023-04-01T05:50:47;9.40;99.90
52203;DHT22;38173;52.850;6.970;2023-04-01T05:53:12;9.40;99.90
52203;DHT22;38173;52.850;6.970;2023-04-01T05:55:38;9.40;99.90
52203;DHT22;38173;52.850;6.970;2023-04-01T05:58:04;9.40;99.90
52203;DHT22;38173;52.850;6.970;2023-04-01T06:00:30;9.40;99.90
52203;DHT22;38173;52.850;6.970;2023-04-01T06:03:02;9.40;99.90
52203;DHT22;38173;52.850;6.970;2023-04-01T06:05:46;9.40;99.90
52203;DHT22;38173;52.850;6.970;2023-04-01T06:08:18;9.50;99.90
52203;DHT22;38173;52.850;6.970;2023-04-01T06:32:06;9.60;99.90
52203;DHT22;38173;52.850;6.970;2023-04-01T06:42:41;9.70;99.90
52203;DHT22;38173;52.850;6.970;2023-04-01T06:47:55;9.70;99.90
52203;DHT22;38173;52.850;6.970;2023-04-01T06:50:30;9.70;99.90
52203;DHT22;38173;52.850;6.970;2023-04-01T06:53:17;9.70;99.90
52203;DHT22;38173;52.850;6.970;2023-04-01T06:56:00;9.80;99.90
52203;DHT22;38173;52.850;6.970;2023-04-01T06:58:39;9.80;99.90
52203;DHT22;38173;52.850;6.970;2023-04-01T07:01:08;9.90;99.90
52203;DHT22;38173;52.850;6.970;2023-04-01T07:03:49;9.90;99.90
52203;DHT22;38173;52.850;6.970;2023-04-01T07:06:40;9.90;99.90
52203;DHT22;38173;52.850;6.970;2023-04-01T07:09:55;9.90;99.90
52203;DHT22;38173;52.850;6.970;2023-04-01T07:11:56;9.90;99.90
52203;DHT22;38173;52.850;6.970;2023-04-01T07:14:30;9.90;99.90
52203;DHT22;38173;52.850;6.970;2023-04-01T07:17:06;10.00;99.90
52203;DHT22;38173;52.850;6.970;2023-04-01T07:19:53;10.00;99.90
52203;DHT22;38173;52.850;6.970;2023-04-01T07:22:40;10.00;99.90
52203;DHT22;38173;52.850;6.970;2023-04-01T07:25:13;9.90;99.90
52203;DHT22;38173;52.850;6.970;2023-04-01T07:27:39;10.00;99.90
52203;DHT22;38173;52.850;6.970;2023-04-01T07:30:13;10.00;99.90
52203;DHT22;38173;52.850;6.970;2023-04-01T07:32:40;9.90;99.90
52203;DHT22;38173;52.850;6.970;2023-04-01T07:45:23;10.00;99.90
52203;DHT22;38173;52.850;6.970;2023-04-01T07:48:00;10.00;99.90
52203;DHT22;38173;52.850;6.970;2023-04-01T07:50:35;10.00;99.90
52203;DHT22;38173;52.850;6.970;2023-04-01T07:55:43;10.10;99.90
52203;DHT22;38173;52.850;6.970;2023-04-01T08:05:55;10.20;99.90
52203;DHT22;38173;52.850;6.970;2023-04-01T08:21:20;10.70;99.90
52203;DHT22;38173;52.850;6.970;2023-04-01T08:23:48;10.80;99.90
52203;DHT22;38173;52.850;6.970;2023-04-01T08:29:00;11.00;99.90
52203;DHT22;38173;52.850;6.970;2023-04-01T08:31:39;11.10;99.90
52203;DHT22;38173;52.850;6.970;2023-04-01T08:34:12;11.20;99.90
52203;DHT22;38173;52.850;6.970;2023-04-01T08:36:45;11.30;99.90
52203;DHT22;38173;52.850;6.970;2023-04-01T08:39:34;11.30;99.90
52203;DHT22;38173;52.850;6.970;2023-04-01T08:42:08;11.40;99.90
52203;DHT22;38173;52.850;6.970;2023-04-01T08:44:50;11.50;99.90
52203;DHT22;38173;52.850;6.970;2023-04-01T08:50:24;11.60;99.90
52203;DHT22;38173;52.850;6.970;2023-04-01T08:55:37;11.70;99.90
52203;DHT22;38173;52.850;6.970;2023-04-01T09:11:42;12.10;99.90
52203;DHT22;38173;52.850;6.970;2023-04-01T09:24:40;12.20;99.90
52203;DHT22;38173;52.850;6.970;2023-04-01T09:40:43;12.90;99.90
52203;DHT22;38173;52.850;6.970;2023-04-01T09:48:44;13.10;99.90
52203;DHT22;38173;52.850;6.970;2023-04-01T09:53:48;13.10;99.90
52203;DHT22;38173;52.850;6.970;2023-04-01T09:56:34;13.10;99.90
52203;DHT22;38173;52.850;6.970;2023-04-01T10:09:49;12.90;99.90
52203;DHT22;38173;52.850;6.970;2023-04-01T10:17:43;12.80;99.90
52203;DHT22;38173;52.850;6.970;2023-04-01T10:28:13;12.50;99.90
52203;DHT22;38173;52.850;6.970;2023-04-01T10:46:21;12.10;99.90
52203;DHT22;38173;52.850;6.970;2023-04-01T10:57:02;12.00;99.90
52203;DHT22;38173;52.850;6.970;2023-04-01T11:31:03;11.30;99.90
52203;DHT22;38173;52.850;6.970;2023-04-01T11:38:52;11.10;99.90
52203;DHT22;38173;52.850;6.970;2023-04-01T11:44:15;11.00;99.90
52203;DHT22;38173;52.850;6.970;2023-04-01T11:46:46;11.00;99.90
52203;DHT22;38173;52.850;6.970;2023-04-01T11:49:21;10.90;99.90
52203;DHT22;38173;52.850;6.970;2023-04-01T11:57:35;10.80;99.90
52203;DHT22;38173;52.850;6.970;2023-04-01T12:02:42;10.90;99.90
52203;DHT22;38173;52.850;6.970;2023-04-01T12:10:19;11.10;99.90
52203;DHT22;38173;52.850;6.970;2023-04-01T12:17:56;11.10;99.90
52203;DHT22;38173;52.850;6.970;2023-04-01T12:20:30;11.10;99.90
52203;DHT22;38173;52.850;6.970;2023-04-01T12:23:05;11.10;99.90
52203;DHT22;38173;52.850;6.970;2023-04-01T12:30:49;11.10;99.90
52203;DHT22;38173;52.850;6.970;2023-04-01T12:33:28;11.10;99.90
52203;DHT22;38173;52.850;6.970;2023-04-01T12:55:59;10.40;99.90
52203;DHT22;38173;52.850;6.970;2023-04-01T13:09:13;10.30;99.90
52203;DHT22;38173;52.850;6.970;2023-04-01T13:17:04;10.40;99.90
52203;DHT22;38173;52.850;6.970;2023-04-01T13:22:30;10.40;99.90
52203;DHT22;38173;52.850;6.970;2023-04-01T13:25:00;10.40;99.90
52203;DHT22;38173;52.850;6.970;2023-04-01T13:35:05;10.10;99.90
52203;DHT22;38173;52.850;6.970;2023-04-01T13:37:39;10.10;99.90
52203;DHT22;38173;52.850;6.970;2023-04-01T13:42:59;9.90;99.90
52203;DHT22;38173;52.850;6.970;2023-04-01T13:45:29;9.90;99.90
52203;DHT22;38173;52.850;6.970;2023-04-01T13:48:24;9.80;99.90
52203;DHT22;38173;52.850;6.970;2023-04-01T14:01:35;9.70;99.90
52203;DHT22;38173;52.850;6.970;2023-04-01T14:06:40;9.80;99.90
52203;DHT22;38173;52.850;6.970;2023-04-01T14:09:19;9.80;99.90
52203;DHT22;38173;52.850;6.970;2023-04-01T14:14:56;9.90;99.90
52203;DHT22;38173;52.850;6.970;2023-04-01T14:22:43;9.90;99.90
52203;DHT22;38173;52.850;6.970;2023-04-01T14:25:34;9.80;99.90
52203;DHT22;38173;52.850;6.970;2023-04-01T14:28:20;9.80;99.90
52203;DHT22;38173;52.850;6.970;2023-04-01T14:31:15;9.60;99.90
52203;DHT22;38173;52.850;6.970;2023-04-01T14:33:45;9.60;99.90
52203;DHT22;38173;52.850;6.970;2023-04-01T14:44:54;9.50;99.90
52203;DHT22;38173;52.850;6.970;2023-04-01T14:49:41;9.60;99.90
52203;DHT22;38173;52.850;6.970;2023-04-01T14:52:13;9.70;99.90
52203;DHT22;38173;52.850;6.970;2023-04-01T14:54:41;9.70;99.90
52203;DHT22;38173;52.850;6.970;2023-04-01T14:57:16;9.70;99.90
52203;DHT22;38173;52.850;6.970;2023-04-01T14:59:59;9.70;99.90
52203;DHT22;38173;52.850;6.970;2023-04-01T15:02:46;9.80;99.90
52203;DHT22;38173;52.850;6.970;2023-04-01T15:10:34;9.60;99.90
52203;DHT22;38173;52.850;6.970;2023-04-01T15:13:08;9.60;99.90
52203;DHT22;38173;52.850;6.970;2023-04-01T15:18:17;9.40;99.90
52203;DHT22;38173;52.850;6.970;2023-04-01T15:20:51;9.40;99.90
52203;DHT22;38173;52.850;6.970;2023-04-01T15:31:11;9.30;99.90
52203;DHT22;38173;52.850;6.970;2023-04-01T15:43:46;9.20;99.90
52203;DHT22;38173;52.850;6.970;2023-04-01T15:49:08;9.10;99.90
52203;DHT22;38173;52.850;6.970;2023-04-01T15:52:20;9.00;99.90
52203;DHT22;38173;52.850;6.970;2023-04-01T15:57:15;8.90;99.90
52203;DHT22;38173;52.850;6.970;2023-04-01T15:59:53;8.90;99.90
52203;DHT22;38173;52.850;6.970;2023-04-01T16:08:02;8.80;99.90
52203;DHT22;38173;52.850;6.970;2023-04-01T16:26:37;8.50;99.90
52203;DHT22;38173;52.850;6.970;2023-04-01T16:28:40;8.50;99.90
52203;DHT22;38173;52.850;6.970;2023-04-01T16:33:47;8.40;99.90
52203;DHT22;38173;52.850;6.970;2023-04-01T16:41:17;8.20;99.90
52203;DHT22;38173;52.850;6.970;2023-04-01T16:43:53;8.10;99.90
52203;DHT22;38173;52.850;6.970;2023-04-01T16:49:04;8.00;99.90
52203;DHT22;38173;52.850;6.970;2023-04-01T16:59:38;8.00;99.90
52203;DHT22;38173;52.850;6.970;2023-04-01T17:05:14;7.90;99.90
52203;DHT22;38173;52.850;6.970;2023-04-01T17:12:47;7.90;99.90
52203;DHT22;38173;52.850;6.970;2023-04-01T17:23:36;7.80;99.90
52203;DHT22;38173;52.850;6.970;2023-04-01T17:26:08;7.80;99.90
52203;DHT22;38173;52.850;6.970;2023-04-01T17:28:43;7.70;99.90
52203;DHT22;38173;52.850;6.970;2023-04-01T17:31:26;7.70;99.90
52203;DHT22;38173;52.850;6.970;2023-04-01T17:41:38;7.50;99.90
52203;DHT22;38173;52.850;6.970;2023-04-01T17:54:52;7.30;99.90
52203;DHT22;38173;52.850;6.970;2023-04-01T18:10:23;7.10;99.90
52203;DHT22;38173;52.850;6.970;2023-04-01T18:21:19;7.00;99.90
52203;DHT22;38173;52.850;6.970;2023-04-01T18:23:41;7.00;99.90
52203;DHT22;38173;52.850;6.970;2023-04-01T18:28:54;6.90;99.90
52203;DHT22;38173;52.850;6.970;2023-04-01T18:31:23;6.90;99.90
52203;DHT22;38173;52.850;6.970;2023-04-01T18:38:46;6.90;99.90
52203;DHT22;38173;52.850;6.970;2023-04-01T18:41:14;6.80;99.90
52203;DHT22;38173;52.850;6.970;2023-04-01T18:46:23;6.80;99.90
52203;DHT22;38173;52.850;6.970;2023-04-01T18:56:45;6.60;99.90
52203;DHT22;38173;52.850;6.970;2023-04-01T19:02:29;6.60;99.90
52203;DHT22;38173;52.850;6.970;2023-04-01T19:09:50;6.50;99.90
52203;DHT22;38173;52.850;6.970;2023-04-01T19:20:21;6.50;99.90
52203;DHT22;38173;52.850;6.970;2023-04-01T19:22:52;6.50;99.90
52203;DHT22;38173;52.850;6.970;2023-04-01T19:35:28;6.40;99.90
52203;DHT22;38173;52.850;6.970;2023-04-01T19:38:04;6.40;99.90
52203;DHT22;38173;52.850;6.970;2023-04-01T19:40:34;6.40;99.90
52203;DHT22;38173;52.850;6.970;2023-04-01T19:48:31;6.40;99.90
52203;DHT22;38173;52.850;6.970;2023-04-01T19:51:09;6.40;99.90
52203;DHT22;38173;52.850;6.970;2023-04-01T19:58:36;6.30;99.90
52203;DHT22;38173;52.850;6.970;2023-04-01T20:01:06;6.30;99.90
52203;DHT22;38173;52.850;6.970;2023-04-01T20:16:50;6.30;99.90
52203;DHT22;38173;52.850;6.970;2023-04-01T20:19:53;6.20;99.90
52203;DHT22;38173;52.850;6.970;2023-04-01T20:22:23;6.20;99.90
52203;DHT22;38173;52.850;6.970;2023-04-01T20:24:51;6.20;99.90
52203;DHT22;38173;52.850;6.970;2023-04-01T20:27:22;6.20;99.90
52203;DHT22;38173;52.850;6.970;2023-04-01T20:32:34;6.20;99.90
52203;DHT22;38173;52.850;6.970;2023-04-01T20:35:17;6.20;99.90
52203;DHT22;38173;52.850;6.970;2023-04-01T20:41:02;6.10;99.90
52203;DHT22;38173;52.850;6.970;2023-04-01T20:50:49;6.10;99.90
52203;DHT22;38173;52.850;6.970;2023-04-01T20:53:41;6.00;99.90
52203;DHT22;38173;52.850;6.970;2023-04-01T21:01:15;5.90;99.90
52203;DHT22;38173;52.850;6.970;2023-04-01T21:03:51;5.90;99.90
52203;DHT22;38173;52.850;6.970;2023-04-01T21:11:53;5.90;99.90
52203;DHT22;38173;52.850;6.970;2023-04-01T21:14:28;5.90;99.90
52203;DHT22;38173;52.850;6.970;2023-04-01T21:22:19;5.80;99.90
52203;DHT22;38173;52.850;6.970;2023-04-01T21:24:54;5.80;99.90
52203;DHT22;38173;52.850;6.970;2023-04-01T21:32:29;5.70;99.90
52203;DHT22;38173;52.850;6.970;2023-04-01T21:37:42;5.60;99.90
52203;DHT22;38173;52.850;6.970;2023-04-01T21:50:47;5.60;99.90
52203;DHT22;38173;52.850;6.970;2023-04-01T21:56:02;5.60;99.90
52203;DHT22;38173;52.850;6.970;2023-04-01T22:01:30;5.50;99.90
52203;DHT22;38173;52.850;6.970;2023-04-01T22:04:08;5.40;99.90
52203;DHT22;38173;52.850;6.970;2023-04-01T22:14:01;5.40;99.90
52203;DHT22;38173;52.850;6.970;2023-04-01T22:16:44;5.40;99.90
52203;DHT22;38173;52.850;6.970;2023-04-01T22:24:38;5.40;99.90
52203;DHT22;38173;52.850;6.970;2023-04-01T22:30:01;5.40;99.90
52203;DHT22;38173;52.850;6.970;2023-04-01T22:32:28;5.30;99.90
52203;DHT22;38173;52.850;6.970;2023-04-01T22:35:03;5.40;99.90
52203;DHT22;38173;52.850;6.970;2023-04-01T22:37:42;5.30;99.90
52203;DHT22;38173;52.850;6.970;2023-04-01T22:40:14;5.30;99.90
52203;DHT22;38173;52.850;6.970;2023-04-01T22:42:45;5.30;99.90
52203;DHT22;38173;52.850;6.970;2023-04-01T22:45:21;5.20;99.90
52203;DHT22;38173;52.850;6.970;2023-04-01T22:48:10;5.20;99.90
52203;DHT22;38173;52.850;6.970;2023-04-01T22:50:36;5.20;99.90
52203;DHT22;38173;52.850;6.970;2023-04-01T22:53:08;5.20;99.90
52203;DHT22;38173;52.850;6.970;2023-04-01T22:55:38;5.20;99.90
52203;DHT22;38173;52.850;6.970;2023-04-01T22:58:07;5.20;99.90
52203;DHT22;38173;52.850;6.970;2023-04-01T23:00:35;5.10;99.90
52203;DHT22;38173;52.850;6.970;2023-04-01T23:05:27;5.00;99.90
52203;DHT22;38173;52.850;6.970;2023-04-01T23:10:27;4.90;99.90
52203;DHT22;38173;52.850;6.970;2023-04-01T23:12:57;5.00;99.90
52203;DHT22;38173;52.850;6.970;2023-04-01T23:15:23;4.90;99.90
52203;DHT22;38173;52.850;6.970;2023-04-01T23:22:51;4.80;99.90
52203;DHT22;38173;52.850;6.970;2023-04-01T23:28:14;4.80;99.90
52203;DHT22;38173;52.850;6.970;2023-04-01T23:35:49;4.70;99.90
52203;DHT22;38173;52.850;6.970;2023-04-01T23:38:15;4.70;99.90
52203;DHT22;38173;52.850;6.970;2023-04-01T23:40:41;4.70;99.90
52203;DHT22;38173;52.850;6.970;2023-04-01T23:43:17;4.60;99.90
52203;DHT22;38173;52.850;6.970;2023-04-01T23:45:47;4.60;99.90
52203;DHT22;38173;52.850;6.970;2023-04-01T23:48:13;4.50;99.90
52203;DHT22;38173;52.850;6.970;2023-04-01T23:50:41;4.50;99.90
52203;DHT22;38173;52.850;6.970;2023-04-01T23:53:17;4.50;99.90
52203;DHT22;38173;52.850;6.970;2023-04-01T23:55:44;4.50;99.90
